This is the latest recevied weather packets stored in our database for station/object KF6ILA. If no packets are shown the sender has not sent any weather packets the latest 10 day(s).
| Time | Temp. | Humidity | Pressure | Rain* | Wind** | Luminosity | Snow |
|---|---|---|---|---|---|---|---|
| 1778369015 | 23.89° C | 51% | 1013 hPa | 0 mm | - | 663 W/m² | - |
| 1778368718 | 23.89° C | 49% | 1013 hPa | 0 mm | - | 677 W/m² | - |
| 1778368421 | 24.44° C | 51% | 1013 hPa | 0 mm | - | 689 W/m² | - |
| 1778367530 | 24.44° C | 48% | 1013.2 hPa | 0 mm | - | 738 W/m² | - |
| 1778365154 | 25° C | 44% | 1013.4 hPa | 0 mm | - | 847 W/m² | - |
| 1778364857 | 25° C | 41% | 1013.5 hPa | 0 mm | - | 858 W/m² | - |
| 1778363372 | 25.56° C | 39% | 1014 hPa | 0 mm | - | 919 W/m² | - |
| 1778363075 | 25.56° C | 40% | 1013.9 hPa | 0 mm | - | 926 W/m² | - |
| 1778361293 | 25.56° C | 32% | 1014.3 hPa | 0 mm | - | 984 W/m² | - |
| 1778359808 | 25.56° C | 34% | 1014.5 hPa | 0 mm | - | 1018 W/m² | - |
| 1778359214 | 25.56° C | 33% | 1014.5 hPa | 0 mm | - | 1032 W/m² | - |
| 1778356541 | 25.56° C | 35% | 1014.9 hPa | 0 mm | - | 1055 W/m² | - |
| 1778356244 | 25.56° C | 33% | 1015 hPa | 0 mm | - | 1060 W/m² | - |
| 1778355650 | 25.56° C | 37% | 1015.1 hPa | 0 mm | - | 1058 W/m² | - |
| 1778352086 | 24.44° C | 39% | 1015.3 hPa | 0 mm | - | 1028 W/m² | - |
| 1778351195 | 23.89° C | 36% | 1015.2 hPa | 0 mm | - | 1009 W/m² | - |
| 1778350304 | 23.33° C | 39% | 1015.3 hPa | 0 mm | - | 983 W/m² | - |
| 1778350007 | 23.33° C | 37% | 1015.3 hPa | 0 mm | - | 974 W/m² | - |
| 1778349116 | 22.78° C | 40% | 1015.3 hPa | 0 mm | - | 946 W/m² | - |
| 1778348225 | 22.78° C | 42% | 1015.2 hPa | 0 mm | - | 912 W/m² | - |
| 1778347928 | 22.78° C | 41% | 1015.2 hPa | 0 mm | - | 904 W/m² | - |
| 1778347037 | - | - | - | - | - | - | - |
| 1778346146 | 21.67° C | 44% | 1015.1 hPa | 0 mm | - | 828 W/m² | - |
| 1778345552 | 21.67° C | 44% | 1015 hPa | 0 mm | - | 802 W/m² | - |
| 1778345255 | 21.67° C | 45% | 1015 hPa | 0 mm | - | 788 W/m² | - |
* Rain latest hour (hover to see other rain measurements)
** Current wind speed in m/s (hover to see current wind gust speed)